createdAt,value
2022-11-15T00:01:19.366Z,10.43
2022-11-15T00:03:48.052Z,10.10
2022-11-15T00:06:16.065Z,9.80
2022-11-15T00:08:44.382Z,9.00
2022-11-15T00:11:13.799Z,8.85
2022-11-15T00:13:43.493Z,8.88
2022-11-15T00:16:12.535Z,9.68
2022-11-15T00:18:42.427Z,8.90
2022-11-15T00:21:13.624Z,10.00
2022-11-15T00:23:42.022Z,9.48
2022-11-15T00:26:13.643Z,8.88
2022-11-15T00:28:43.905Z,8.77
2022-11-15T00:31:14.293Z,8.10
2022-11-15T00:33:44.458Z,9.27
2022-11-15T00:36:12.724Z,10.82
2022-11-15T00:38:42.284Z,10.60
2022-11-15T00:41:10.444Z,10.10
2022-11-15T00:43:41.376Z,9.43
2022-11-15T00:46:10.946Z,8.10
2022-11-15T00:48:39.114Z,8.45
2022-11-15T00:51:07.693Z,9.18
2022-11-15T00:53:35.794Z,9.70
2022-11-15T00:56:04.096Z,8.57
2022-11-15T00:58:32.059Z,9.07
2022-11-15T01:01:09.287Z,8.52
2022-11-15T01:03:39.721Z,10.05
2022-11-15T01:06:08.957Z,10.13
2022-11-15T01:08:37.288Z,9.85
2022-11-15T01:11:07.018Z,10.65
2022-11-15T01:13:36.437Z,10.70
2022-11-15T01:16:09.933Z,9.48
2022-11-15T01:18:39.936Z,10.85
2022-11-15T01:21:10.020Z,9.43
2022-11-15T01:23:38.114Z,9.75
2022-11-15T01:26:08.855Z,9.02
2022-11-15T01:28:38.773Z,10.13
2022-11-15T01:31:09.147Z,8.93
2022-11-15T01:33:39.341Z,9.45
2022-11-15T01:36:08.508Z,10.10
2022-11-15T01:38:36.971Z,8.90
2022-11-15T01:41:05.452Z,9.38
2022-11-15T01:43:35.412Z,9.15
2022-11-15T01:46:06.370Z,9.98
2022-11-15T01:48:36.524Z,9.23
2022-11-15T01:51:11.427Z,9.13
2022-11-15T01:53:41.914Z,9.88
2022-11-15T01:56:15.710Z,10.02
2022-11-15T01:58:45.552Z,10.00
2022-11-15T02:01:14.427Z,8.18
2022-11-15T02:03:49.656Z,9.10
2022-11-15T02:06:20.403Z,9.57
2022-11-15T02:08:49.167Z,8.88
2022-11-15T02:11:17.325Z,10.18
2022-11-15T02:13:46.252Z,8.80
2022-11-15T02:16:22.379Z,8.13
2022-11-15T02:18:57.567Z,8.48
2022-11-15T02:21:34.365Z,8.68
2022-11-15T02:24:43.474Z,8.48
2022-11-15T02:27:56.208Z,8.70
2022-11-15T02:30:29.967Z,9.05
2022-11-15T02:33:03.402Z,9.15
2022-11-15T02:35:40.002Z,7.90
2022-11-15T02:38:16.477Z,9.02
2022-11-15T02:40:51.888Z,8.82
2022-11-15T02:43:43.997Z,8.85
2022-11-15T02:46:20.812Z,9.48
2022-11-15T02:48:50.176Z,9.10
2022-11-15T02:51:18.823Z,10.05
2022-11-15T02:53:47.105Z,7.85
2022-11-15T02:56:15.127Z,9.77
2022-11-15T02:59:11.930Z,9.63
2022-11-15T03:01:54.009Z,8.70
2022-11-15T03:04:32.065Z,9.35
2022-11-15T03:07:04.396Z,8.55
2022-11-15T03:09:37.506Z,8.40
2022-11-15T03:12:14.038Z,8.52
2022-11-15T03:14:48.244Z,8.68
2022-11-15T03:17:23.304Z,7.53
2022-11-15T03:19:55.406Z,7.88
2022-11-15T03:22:28.544Z,7.97
2022-11-15T03:25:00.937Z,7.88
2022-11-15T03:27:35.239Z,8.90
2022-11-15T03:30:06.519Z,8.07
2022-11-15T03:32:41.153Z,8.20
2022-11-15T03:35:12.875Z,7.82
2022-11-15T03:37:46.359Z,9.93
2022-11-15T03:40:15.629Z,9.13
2022-11-15T03:42:49.290Z,7.78
2022-11-15T03:45:21.521Z,8.13
2022-11-15T03:47:55.180Z,8.38
2022-11-15T03:50:25.353Z,7.65
2022-11-15T03:52:56.610Z,8.30
2022-11-15T03:55:24.932Z,8.50
2022-11-15T03:57:56.016Z,7.97
2022-11-15T04:00:24.468Z,8.68
2022-11-15T04:02:53.937Z,8.90
2022-11-15T04:05:22.371Z,8.52
2022-11-15T04:07:50.381Z,8.43
2022-11-15T04:10:19.184Z,8.95
2022-11-15T04:12:48.724Z,8.45
2022-11-15T04:15:18.653Z,7.60
2022-11-15T04:17:48.162Z,8.07
2022-11-15T04:20:36.953Z,8.30
2022-11-15T04:23:24.394Z,8.13
2022-11-15T04:25:54.542Z,8.55
2022-11-15T04:28:22.863Z,7.90
2022-11-15T04:30:50.908Z,8.60
2022-11-15T04:33:19.037Z,6.90
2022-11-15T04:36:08.626Z,6.32
2022-11-15T04:38:36.045Z,7.35
2022-11-15T04:41:05.162Z,7.30
2022-11-15T04:43:33.812Z,7.65
2022-11-15T04:46:02.103Z,8.10
2022-11-15T04:48:30.551Z,8.40
2022-11-15T04:50:59.912Z,8.18
2022-11-15T04:53:28.219Z,8.13
2022-11-15T04:55:56.258Z,7.85
2022-11-15T04:58:24.562Z,7.18
2022-11-15T05:00:52.950Z,6.68
2022-11-15T05:03:38.233Z,5.97
2022-11-15T05:06:08.641Z,6.60
2022-11-15T05:08:36.660Z,7.03
2022-11-15T05:11:04.916Z,8.00
2022-11-15T05:13:33.471Z,7.05
2022-11-15T05:16:01.988Z,7.60
2022-11-15T05:18:30.039Z,8.35
2022-11-15T05:20:58.270Z,7.57
2022-11-15T05:23:27.818Z,7.28
2022-11-15T05:25:55.896Z,6.10
2022-11-15T05:28:24.229Z,6.63
2022-11-15T05:30:52.252Z,7.22
2022-11-15T05:33:20.644Z,6.65
2022-11-15T05:35:52.702Z,6.90
2022-11-15T05:38:21.142Z,7.28
2022-11-15T05:40:50.660Z,6.55
2022-11-15T05:43:18.837Z,7.03
2022-11-15T05:45:47.026Z,5.75
2022-11-15T05:48:16.218Z,5.68
2022-11-15T05:50:48.152Z,5.25
2022-11-15T05:53:19.676Z,5.63
2022-11-15T05:55:48.394Z,5.80
2022-11-15T05:58:17.928Z,6.30
2022-11-15T06:00:46.078Z,6.40
2022-11-15T06:03:15.363Z,7.55
2022-11-15T06:05:43.444Z,6.38
2022-11-15T06:08:11.497Z,6.63
2022-11-15T06:10:39.543Z,6.80
2022-11-15T06:13:08.303Z,7.15
2022-11-15T06:15:37.744Z,6.70
2022-11-15T06:18:05.960Z,7.65
2022-11-15T06:20:34.017Z,6.25
2022-11-15T06:23:04.386Z,6.45
2022-11-15T06:25:32.944Z,7.18
2022-11-15T06:28:01.773Z,6.75
2022-11-15T06:30:29.788Z,5.60
2022-11-15T06:33:04.009Z,6.60
2022-11-15T06:35:32.819Z,6.50
2022-11-15T06:38:05.623Z,5.68
2022-11-15T06:40:35.977Z,5.93
2022-11-15T06:43:04.961Z,5.88
2022-11-15T06:45:33.533Z,7.22
2022-11-15T06:48:03.528Z,5.95
2022-11-15T06:50:31.596Z,5.97
2022-11-15T06:53:04.511Z,7.63
2022-11-15T06:55:32.590Z,8.90
2022-11-15T06:58:00.661Z,9.65
2022-11-15T07:00:28.828Z,8.50
2022-11-15T07:02:56.932Z,8.38
2022-11-15T07:05:26.383Z,9.68
2022-11-15T07:07:55.258Z,9.40
2022-11-15T07:10:25.893Z,9.95
2022-11-15T07:12:54.586Z,7.75
2022-11-15T07:15:24.868Z,8.82
2022-11-15T07:17:53.505Z,10.93
2022-11-15T07:20:21.552Z,8.70
2022-11-15T07:22:50.933Z,8.95
2022-11-15T07:25:18.959Z,9.70
2022-11-15T07:27:56.730Z,11.75
2022-11-15T07:30:25.242Z,11.40
2022-11-15T07:32:55.893Z,11.48
2022-11-15T07:35:24.449Z,11.15
2022-11-15T07:37:58.154Z,11.93
2022-11-15T07:40:26.955Z,12.98
2022-11-15T07:42:55.139Z,11.25
2022-11-15T07:45:24.050Z,10.65
2022-11-15T07:47:52.427Z,10.30
2022-11-15T07:50:21.322Z,10.85
2022-11-15T07:52:49.402Z,10.70
2022-11-15T07:55:18.767Z,9.98
2022-11-15T07:57:46.804Z,9.27
2022-11-15T08:00:16.608Z,8.82
2022-11-15T08:02:44.804Z,6.93
2022-11-15T08:05:13.410Z,8.07
2022-11-15T08:07:42.222Z,7.60
2022-11-15T08:10:12.486Z,7.45
2022-11-15T08:12:42.180Z,7.97
2022-11-15T08:15:11.385Z,7.78
2022-11-15T08:17:39.376Z,7.60
2022-11-15T08:20:08.462Z,7.43
2022-11-15T08:22:36.461Z,6.68
2022-11-15T08:25:04.744Z,7.05
2022-11-15T08:27:32.911Z,7.22
2022-11-15T08:30:02.560Z,7.32
2022-11-15T08:32:30.920Z,6.53
2022-11-15T08:34:59.052Z,7.55
2022-11-15T08:37:27.103Z,6.47
2022-11-15T08:39:55.186Z,6.50
2022-11-15T08:42:23.234Z,6.32
2022-11-15T08:44:51.577Z,6.55
2022-11-15T08:47:20.996Z,6.63
2022-11-15T08:49:49.026Z,6.20
2022-11-15T08:52:17.361Z,5.60
2022-11-15T08:54:45.354Z,4.95
2022-11-15T08:57:13.808Z,5.80
2022-11-15T08:59:41.788Z,4.95
2022-11-15T09:02:15.145Z,5.45
2022-11-15T09:04:45.461Z,5.43
2022-11-15T09:07:14.269Z,4.70
2022-11-15T09:09:42.326Z,4.60
2022-11-15T09:12:10.597Z,5.45
2022-11-15T09:14:38.805Z,5.47
2022-11-15T09:17:10.295Z,4.95
2022-11-15T09:19:38.994Z,4.72
2022-11-15T09:22:09.894Z,5.50
2022-11-15T09:24:38.062Z,5.50
2022-11-15T09:27:06.135Z,6.30
2022-11-15T09:29:34.862Z,5.82
2022-11-15T09:32:02.916Z,10.55
2022-11-15T09:34:31.133Z,5.57
2022-11-15T09:36:59.127Z,6.00
2022-11-15T09:39:28.490Z,8.38
2022-11-15T09:42:12.676Z,5.82
2022-11-15T09:44:46.344Z,4.70
2022-11-15T09:47:50.279Z,5.70
2022-11-15T09:50:30.373Z,4.90
2022-11-15T09:52:58.942Z,5.13
2022-11-15T09:55:36.990Z,5.25
2022-11-15T09:58:13.206Z,5.88
2022-11-15T10:00:46.965Z,6.07
2022-11-15T10:03:18.481Z,5.28
2022-11-15T10:05:48.918Z,4.18
2022-11-15T10:08:36.478Z,4.30
2022-11-15T10:11:36.076Z,4.88
2022-11-15T10:13:59.773Z,4.40
2022-11-15T10:16:52.265Z,4.75
2022-11-15T10:19:28.497Z,4.18
2022-11-15T10:22:14.979Z,5.20
2022-11-15T10:24:45.914Z,4.18
2022-11-15T10:27:18.448Z,4.07
2022-11-15T10:29:48.185Z,4.20
2022-11-15T10:32:18.392Z,3.65
2022-11-15T10:34:46.653Z,3.65
2022-11-15T10:37:14.664Z,3.78
2022-11-15T10:39:43.221Z,3.65
2022-11-15T10:42:20.368Z,3.83
2022-11-15T10:44:48.422Z,3.35
2022-11-15T10:47:25.845Z,3.30
2022-11-15T10:50:05.848Z,3.20
2022-11-15T10:52:36.920Z,3.30
2022-11-15T10:55:21.914Z,3.13
2022-11-15T10:57:55.662Z,3.58
2022-11-15T11:00:40.791Z,3.55
2022-11-15T11:03:29.517Z,3.63
2022-11-15T11:06:07.482Z,3.47
2022-11-15T11:08:35.737Z,3.20
2022-11-15T11:11:05.807Z,3.03
2022-11-15T11:13:37.066Z,2.90
2022-11-15T11:16:43.778Z,3.17
2022-11-15T11:19:35.849Z,3.25
2022-11-15T11:22:12.145Z,3.17
2022-11-15T11:24:47.508Z,2.90
2022-11-15T11:27:24.023Z,2.95
2022-11-15T11:30:04.123Z,3.15
2022-11-15T11:32:55.899Z,3.25
2022-11-15T11:35:30.439Z,2.83
2022-11-15T11:38:16.167Z,2.55
2022-11-15T11:40:55.107Z,3.03
2022-11-15T11:43:34.598Z,3.58
2022-11-15T11:46:29.490Z,2.97
2022-11-15T11:49:04.087Z,2.47
2022-11-15T11:51:38.437Z,3.63
2022-11-15T11:54:12.597Z,2.63
2022-11-15T11:56:43.800Z,3.08
2022-11-15T11:59:25.288Z,2.78
2022-11-15T12:01:55.165Z,2.65
2022-11-15T12:04:30.023Z,3.00
2022-11-15T12:07:02.392Z,2.72
2022-11-15T12:09:36.091Z,2.95
2022-11-15T12:12:14.322Z,2.50
2022-11-15T12:14:47.863Z,3.33
2022-11-15T12:17:20.817Z,3.63
2022-11-15T12:19:49.233Z,3.03
2022-11-15T12:22:23.803Z,3.10
2022-11-15T12:24:58.169Z,3.10
2022-11-15T12:27:35.903Z,3.38
2022-11-15T12:30:10.228Z,2.75
2022-11-15T12:32:42.144Z,2.53
2022-11-15T12:35:27.060Z,3.25
2022-11-15T12:37:58.765Z,3.00
2022-11-15T12:40:29.249Z,3.47
2022-11-15T12:43:03.465Z,3.53
2022-11-15T12:45:33.455Z,3.33
2022-11-15T12:48:39.826Z,3.42
2022-11-15T12:51:09.172Z,3.85
2022-11-15T12:53:37.253Z,5.10
2022-11-15T12:56:20.229Z,4.70
2022-11-15T12:58:50.491Z,3.58
2022-11-15T13:01:56.356Z,3.83
2022-11-15T13:04:27.231Z,3.25
2022-11-15T13:06:58.671Z,3.42
2022-11-15T13:10:06.114Z,3.25
2022-11-15T13:12:58.968Z,3.63
2022-11-15T13:15:43.421Z,4.03
2022-11-15T13:18:32.084Z,3.80
2022-11-15T13:21:02.680Z,3.38
2022-11-15T13:23:33.573Z,3.13
2022-11-15T13:26:17.671Z,3.47
2022-11-15T13:28:49.855Z,2.88
2022-11-15T13:31:39.588Z,2.95
2022-11-15T13:34:50.488Z,3.38
2022-11-15T13:37:29.773Z,3.17
2022-11-15T13:40:18.381Z,3.13
2022-11-15T13:42:46.834Z,2.88
2022-11-15T13:45:17.493Z,3.17
2022-11-15T13:47:45.716Z,3.55
2022-11-15T13:50:15.063Z,3.10
2022-11-15T13:52:46.938Z,3.35
2022-11-15T13:55:19.696Z,3.17
2022-11-15T13:57:50.544Z,3.00
2022-11-15T14:00:32.511Z,3.30
2022-11-15T14:03:09.330Z,2.80
2022-11-15T14:05:37.529Z,3.55
2022-11-15T14:08:15.918Z,3.30
2022-11-15T14:10:45.349Z,3.30
2022-11-15T14:13:29.687Z,3.70
2022-11-15T14:16:15.750Z,3.38
2022-11-15T14:18:47.110Z,3.45
2022-11-15T14:21:15.538Z,3.47
2022-11-15T14:23:43.935Z,3.33
2022-11-15T14:26:30.131Z,3.45
2022-11-15T14:28:58.457Z,3.33
2022-11-15T14:31:26.449Z,3.40
2022-11-15T14:33:54.479Z,3.10
2022-11-15T14:36:23.978Z,3.05
2022-11-15T14:38:52.696Z,3.38
2022-11-15T14:41:27.311Z,3.40
2022-11-15T14:43:56.112Z,3.13
2022-11-15T14:46:24.165Z,3.55
2022-11-15T14:48:52.244Z,3.65
2022-11-15T14:51:21.528Z,3.83
2022-11-15T14:53:49.596Z,3.72
2022-11-15T14:56:18.249Z,5.20
2022-11-15T14:58:47.651Z,4.03
2022-11-15T15:01:19.845Z,4.70
2022-11-15T15:03:47.855Z,4.70
2022-11-15T15:06:18.208Z,4.57
2022-11-15T15:08:47.126Z,4.65
2022-11-15T15:11:18.246Z,5.05
2022-11-15T15:13:47.685Z,5.20
2022-11-15T15:16:15.732Z,5.00
2022-11-15T15:18:44.267Z,4.90
2022-11-15T15:21:22.470Z,5.35
2022-11-15T15:23:50.602Z,5.68
2022-11-15T15:26:18.811Z,5.22
2022-11-15T15:28:49.923Z,4.72
2022-11-15T15:31:17.947Z,4.53
2022-11-15T15:33:46.416Z,4.90
2022-11-15T15:36:15.922Z,4.82
2022-11-15T15:38:44.084Z,4.15
2022-11-15T15:41:13.606Z,4.70
2022-11-15T15:43:42.718Z,4.97
2022-11-15T15:46:15.804Z,4.53
2022-11-15T15:48:44.417Z,4.95
2022-11-15T15:51:19.628Z,5.03
2022-11-15T15:53:48.503Z,5.50
2022-11-15T15:56:16.737Z,4.53
2022-11-15T15:58:45.219Z,4.55
2022-11-15T16:01:14.594Z,4.28
2022-11-15T16:03:42.751Z,4.25
2022-11-15T16:06:36.375Z,4.72
2022-11-15T16:09:20.748Z,4.80
2022-11-15T16:11:49.591Z,4.30
2022-11-15T16:14:17.633Z,5.32
2022-11-15T16:16:47.017Z,3.90
2022-11-15T16:19:15.054Z,3.83
2022-11-15T16:21:43.074Z,4.90
2022-11-15T16:24:11.077Z,5.03
2022-11-15T16:26:40.107Z,5.55
2022-11-15T16:29:10.183Z,5.82
2022-11-15T16:31:38.264Z,4.40
2022-11-15T16:34:07.968Z,4.38
2022-11-15T16:36:36.780Z,4.22
2022-11-15T16:39:06.002Z,4.32
2022-11-15T16:41:34.287Z,5.13
2022-11-15T16:44:02.360Z,5.25
2022-11-15T16:46:30.847Z,4.90
2022-11-15T16:48:59.288Z,4.93
2022-11-15T16:51:28.668Z,4.15
2022-11-15T16:53:56.733Z,4.22
2022-11-15T16:56:27.389Z,4.00
2022-11-15T16:58:55.797Z,5.57
2022-11-15T17:01:27.017Z,4.28
2022-11-15T17:03:55.831Z,4.50
2022-11-15T17:06:24.661Z,4.05
2022-11-15T17:08:54.115Z,4.03
2022-11-15T17:11:23.467Z,3.63
2022-11-15T17:13:51.489Z,4.18
2022-11-15T17:16:20.124Z,4.20
2022-11-15T17:18:52.493Z,4.10
2022-11-15T17:21:22.557Z,4.95
2022-11-15T17:23:50.715Z,4.30
2022-11-15T17:26:40.322Z,4.60
2022-11-15T17:29:09.158Z,4.95
2022-11-15T17:31:37.890Z,4.80
2022-11-15T17:34:07.345Z,5.32
2022-11-15T17:36:36.172Z,5.05
2022-11-15T17:39:05.232Z,4.82
2022-11-15T17:41:34.672Z,4.45
2022-11-15T17:44:03.614Z,4.55
2022-11-15T17:46:33.548Z,4.13
2022-11-15T17:49:01.668Z,5.47
2022-11-15T17:51:29.707Z,4.78
2022-11-15T17:53:57.849Z,4.53
2022-11-15T17:56:28.040Z,5.10
2022-11-15T17:58:59.724Z,4.97
2022-11-15T18:01:29.347Z,4.80
2022-11-15T18:04:00.557Z,4.63
2022-11-15T18:06:30.592Z,4.40
2022-11-15T18:08:59.863Z,4.88
2022-11-15T18:11:29.823Z,5.00
2022-11-15T18:14:01.206Z,4.85
2022-11-15T18:16:31.000Z,5.50
2022-11-15T18:19:00.129Z,5.50
2022-11-15T18:21:29.715Z,4.78
2022-11-15T18:23:59.590Z,5.00
2022-11-15T18:26:29.725Z,5.30
2022-11-15T18:29:03.829Z,4.15
2022-11-15T18:31:33.135Z,4.10
2022-11-15T18:34:02.120Z,4.45
2022-11-15T18:36:31.758Z,4.40
2022-11-15T18:39:02.367Z,5.03
2022-11-15T18:41:31.106Z,4.28
2022-11-15T18:44:02.319Z,4.50
2022-11-15T18:46:32.337Z,4.00
2022-11-15T18:49:01.500Z,4.55
2022-11-15T18:51:31.640Z,5.22
2022-11-15T18:54:01.216Z,4.85
2022-11-15T18:56:30.841Z,5.15
2022-11-15T18:59:02.499Z,4.90
2022-11-15T19:01:33.868Z,5.00
2022-11-15T19:04:06.636Z,4.53
2022-11-15T19:06:38.607Z,5.22
2022-11-15T19:09:07.807Z,5.20
2022-11-15T19:11:37.400Z,5.55
2022-11-15T19:14:08.406Z,4.90
2022-11-15T19:16:38.460Z,4.65
2022-11-15T19:19:08.335Z,4.90
2022-11-15T19:21:36.528Z,5.20
2022-11-15T19:24:05.596Z,5.00
2022-11-15T19:26:36.837Z,5.45
2022-11-15T19:29:07.641Z,5.07
2022-11-15T19:31:35.874Z,5.43
2022-11-15T19:34:05.727Z,4.72
2022-11-15T19:36:35.092Z,4.68
2022-11-15T19:39:08.542Z,4.85
2022-11-15T19:41:38.452Z,4.78
2022-11-15T19:44:08.134Z,5.78
2022-11-15T19:46:37.668Z,5.25
2022-11-15T19:49:07.153Z,4.97
2022-11-15T19:51:35.419Z,4.72
2022-11-15T19:54:06.747Z,4.85
2022-11-15T19:56:36.033Z,4.97
2022-11-15T19:59:04.908Z,5.32
2022-11-15T20:01:38.895Z,4.60
2022-11-15T20:04:10.068Z,4.53
2022-11-15T20:06:41.416Z,4.88
2022-11-15T20:09:12.190Z,4.93
2022-11-15T20:11:40.212Z,5.25
2022-11-15T20:14:09.725Z,5.28
2022-11-15T20:16:39.224Z,4.95
2022-11-15T20:19:08.521Z,5.15
2022-11-15T20:21:36.889Z,4.70
2022-11-15T20:24:05.475Z,5.63
2022-11-15T20:26:33.446Z,4.45
2022-11-15T20:29:02.195Z,5.25
2022-11-15T20:31:30.538Z,4.43
2022-11-15T20:33:59.950Z,5.10
2022-11-15T20:36:28.334Z,4.97
2022-11-15T20:38:59.182Z,5.03
2022-11-15T20:41:27.309Z,5.00
2022-11-15T20:43:55.421Z,4.80
2022-11-15T20:46:23.475Z,5.85
2022-11-15T20:48:51.480Z,5.32
2022-11-15T20:51:21.158Z,5.47
2022-11-15T20:53:49.970Z,5.30
2022-11-15T20:56:20.169Z,5.00
2022-11-15T20:58:50.343Z,5.10
2022-11-15T21:01:23.515Z,5.18
2022-11-15T21:03:52.973Z,5.35
2022-11-15T21:06:23.162Z,5.47
2022-11-15T21:09:09.684Z,5.97
2022-11-15T21:11:56.269Z,6.00
2022-11-15T21:14:24.304Z,6.32
2022-11-15T21:16:52.425Z,6.35
2022-11-15T21:19:24.099Z,6.57
2022-11-15T21:21:57.391Z,6.95
2022-11-15T21:24:25.680Z,6.47
2022-11-15T21:26:53.716Z,6.32
2022-11-15T21:29:21.899Z,6.95
2022-11-15T21:31:51.587Z,6.38
2022-11-15T21:34:20.541Z,6.22
2022-11-15T21:36:48.612Z,6.20
2022-11-15T21:39:18.016Z,6.03
2022-11-15T21:41:46.046Z,6.20
2022-11-15T21:44:14.064Z,5.53
2022-11-15T21:46:42.057Z,6.07
2022-11-15T21:49:10.384Z,6.38
2022-11-15T21:51:38.784Z,6.05
2022-11-15T21:54:07.013Z,6.38
2022-11-15T21:56:37.106Z,5.38
2022-11-15T21:59:05.098Z,6.65
2022-11-15T22:01:51.141Z,6.75
2022-11-15T22:04:19.309Z,5.95
2022-11-15T22:06:47.506Z,5.65
2022-11-15T22:09:15.529Z,5.78
2022-11-15T22:11:44.902Z,6.07
2022-11-15T22:14:13.230Z,6.07
2022-11-15T22:16:41.237Z,7.85
2022-11-15T22:19:09.635Z,6.75
2022-11-15T22:21:38.101Z,6.53
2022-11-15T22:24:06.851Z,7.22
2022-11-15T22:26:34.954Z,7.00
2022-11-15T22:29:04.671Z,7.47
2022-11-15T22:31:33.103Z,6.88
2022-11-15T22:34:01.387Z,7.95
2022-11-15T22:36:42.486Z,8.18
2022-11-15T22:39:17.673Z,7.25
2022-11-15T22:41:45.639Z,8.32
2022-11-15T22:44:15.029Z,8.85
2022-11-15T22:46:43.315Z,8.55
2022-11-15T22:49:11.337Z,8.32
2022-11-15T22:51:40.568Z,8.10
2022-11-15T22:54:08.811Z,9.07
2022-11-15T22:56:36.941Z,7.57
2022-11-15T22:59:05.231Z,7.20
2022-11-15T23:01:34.944Z,8.88
2022-11-15T23:04:03.009Z,8.20
2022-11-15T23:06:31.063Z,8.50
2022-11-15T23:08:59.115Z,8.70
2022-11-15T23:11:45.074Z,7.70
2022-11-15T23:14:13.123Z,8.98
2022-11-15T23:16:42.487Z,8.15
2022-11-15T23:19:12.632Z,8.57
2022-11-15T23:22:00.279Z,9.20
2022-11-15T23:24:28.712Z,10.68
2022-11-15T23:27:02.203Z,9.20
2022-11-15T23:29:31.374Z,9.38
2022-11-15T23:32:18.287Z,10.73
2022-11-15T23:34:47.282Z,10.27
2022-11-15T23:37:16.963Z,10.13
2022-11-15T23:39:45.010Z,10.15
2022-11-15T23:42:19.765Z,9.77
2022-11-15T23:44:50.093Z,10.25
2022-11-15T23:47:19.871Z,9.50
2022-11-15T23:49:47.919Z,7.90
2022-11-15T23:52:16.524Z,9.40
2022-11-15T23:54:45.032Z,7.63
2022-11-15T23:57:13.241Z,7.97
2022-11-15T23:59:43.427Z,8.70
